KPBI

Palm Beach International Airport

West Palm Beach, Florida, USA
METAR KPBI 241253Z 13009KT 10SM FEW020 BKN032 BKN065 26/24 A3009 RMK AO2 SLP187 T02610239
Observed Flight Rules
May-24 @ 12:53 UTC (an hour ago) Visual Flight Rules
Wind Visibility Clouds
130° at 9 knots 10 miles
  • Few at 2,000' AGL
  • Broken at 3,200' AGL
  • Broken at 6,500' AGL
Temperatures Readings
Current 26°C / 79°F
Dewpoint 24°C / 75°F
Humidity 89%
Altimeter 30.09" Hg
Pressure 1018.7 hPa
Elevation 6
METAR KPBI 241253Z 13009KT 10SM FEW020 BKN032 BKN065 26/24 A3009 RMK AO2 SLP187 T02610239
Observed Flight Rules
May-24 @ 12:53 UTC
(an hour ago)
VFR
Wind Visibility
130° at 9 knots 10 miles
Clouds
  • Few at 2,000' AGL
  • Broken at 3,200' AGL
  • Broken at 6,500' AGL
Temperature Dewpoint
26°C / 79°F 24°C / 75°F
Humidity Altimeter Pressure
89% 30.09" Hg 1018.7 hPa